sensor_id;sensor_type;location;lat;lon;timestamp;P1;durP1;ratioP1;P2;durP2;ratioP2
25231;SDS011;13176;51.140;6.290;2022-12-28T00:01:43;10.75;;;9.77;;
25231;SDS011;13176;51.140;6.290;2022-12-28T00:04:12;10.93;;;10.27;;
25231;SDS011;13176;51.140;6.290;2022-12-28T00:06:42;11.52;;;10.82;;
25231;SDS011;13176;51.140;6.290;2022-12-28T00:09:09;13.10;;;12.20;;
25231;SDS011;13176;51.140;6.290;2022-12-28T00:11:37;12.90;;;12.00;;
25231;SDS011;13176;51.140;6.290;2022-12-28T00:14:04;12.55;;;11.82;;
25231;SDS011;13176;51.140;6.290;2022-12-28T00:16:32;12.30;;;11.30;;
25231;SDS011;13176;51.140;6.290;2022-12-28T00:19:01;12.00;;;11.25;;
25231;SDS011;13176;51.140;6.290;2022-12-28T00:21:32;12.10;;;11.30;;
25231;SDS011;13176;51.140;6.290;2022-12-28T00:23:59;11.40;;;10.60;;
25231;SDS011;13176;51.140;6.290;2022-12-28T00:26:27;12.50;;;11.55;;
25231;SDS011;13176;51.140;6.290;2022-12-28T00:28:56;11.65;;;10.88;;
25231;SDS011;13176;51.140;6.290;2022-12-28T00:31:30;12.70;;;11.85;;
25231;SDS011;13176;51.140;6.290;2022-12-28T00:33:57;11.82;;;11.00;;
25231;SDS011;13176;51.140;6.290;2022-12-28T00:36:23;12.15;;;11.35;;
25231;SDS011;13176;51.140;6.290;2022-12-28T00:39:10;11.95;;;11.00;;
25231;SDS011;13176;51.140;6.290;2022-12-28T00:41:36;12.65;;;11.38;;
25231;SDS011;13176;51.140;6.290;2022-12-28T00:44:03;11.93;;;11.13;;
25231;SDS011;13176;51.140;6.290;2022-12-28T00:46:29;11.13;;;10.52;;
25231;SDS011;13176;51.140;6.290;2022-12-28T00:48:56;11.27;;;10.65;;
25231;SDS011;13176;51.140;6.290;2022-12-28T00:51:22;12.15;;;11.35;;
25231;SDS011;13176;51.140;6.290;2022-12-28T00:53:49;11.07;;;10.38;;
25231;SDS011;13176;51.140;6.290;2022-12-28T00:56:17;11.18;;;10.27;;
25231;SDS011;13176;51.140;6.290;2022-12-28T00:58:45;11.63;;;10.75;;
25231;SDS011;13176;51.140;6.290;2022-12-28T01:01:19;11.15;;;10.35;;
25231;SDS011;13176;51.140;6.290;2022-12-28T01:03:46;10.45;;;9.73;;
25231;SDS011;13176;51.140;6.290;2022-12-28T01:06:14;12.32;;;11.43;;
25231;SDS011;13176;51.140;6.290;2022-12-28T01:08:43;12.85;;;11.88;;
25231;SDS011;13176;51.140;6.290;2022-12-28T01:11:31;12.07;;;11.35;;
25231;SDS011;13176;51.140;6.290;2022-12-28T01:13:57;11.73;;;10.82;;
25231;SDS011;13176;51.140;6.290;2022-12-28T01:16:27;12.10;;;11.32;;
25231;SDS011;13176;51.140;6.290;2022-12-28T01:18:56;11.75;;;11.00;;
25231;SDS011;13176;51.140;6.290;2022-12-28T01:21:29;11.23;;;10.52;;
25231;SDS011;13176;51.140;6.290;2022-12-28T01:23:58;12.43;;;11.43;;
25231;SDS011;13176;51.140;6.290;2022-12-28T01:26:26;11.68;;;10.95;;
25231;SDS011;13176;51.140;6.290;2022-12-28T01:28:53;12.02;;;11.32;;
25231;SDS011;13176;51.140;6.290;2022-12-28T01:31:20;11.30;;;10.70;;
25231;SDS011;13176;51.140;6.290;2022-12-28T01:33:47;10.45;;;9.70;;
25231;SDS011;13176;51.140;6.290;2022-12-28T01:36:17;10.98;;;10.32;;
25231;SDS011;13176;51.140;6.290;2022-12-28T01:38:47;11.27;;;10.38;;
25231;SDS011;13176;51.140;6.290;2022-12-28T01:41:17;10.23;;;9.63;;
25231;SDS011;13176;51.140;6.290;2022-12-28T01:49:30;11.50;;;10.50;;
25231;SDS011;13176;51.140;6.290;2022-12-28T01:51:56;10.45;;;9.82;;
25231;SDS011;13176;51.140;6.290;2022-12-28T01:54:28;10.38;;;9.60;;
25231;SDS011;13176;51.140;6.290;2022-12-28T01:56:58;8.82;;;8.30;;
25231;SDS011;13176;51.140;6.290;2022-12-28T01:59:26;10.57;;;9.93;;
25231;SDS011;13176;51.140;6.290;2022-12-28T02:01:56;11.88;;;10.88;;
25231;SDS011;13176;51.140;6.290;2022-12-28T02:04:23;10.80;;;10.23;;
25231;SDS011;13176;51.140;6.290;2022-12-28T02:06:51;11.10;;;10.27;;
25231;SDS011;13176;51.140;6.290;2022-12-28T02:09:20;11.52;;;10.88;;
25231;SDS011;13176;51.140;6.290;2022-12-28T02:11:50;11.65;;;10.95;;
25231;SDS011;13176;51.140;6.290;2022-12-28T02:14:17;12.27;;;11.32;;
25231;SDS011;13176;51.140;6.290;2022-12-28T02:16:45;13.00;;;11.98;;
25231;SDS011;13176;51.140;6.290;2022-12-28T02:19:12;11.40;;;10.80;;
25231;SDS011;13176;51.140;6.290;2022-12-28T02:27:45;11.00;;;10.18;;
25231;SDS011;13176;51.140;6.290;2022-12-28T02:30:24;11.38;;;10.68;;
25231;SDS011;13176;51.140;6.290;2022-12-28T02:32:59;14.27;;;10.77;;
25231;SDS011;13176;51.140;6.290;2022-12-28T02:38:36;11.05;;;10.35;;
25231;SDS011;13176;51.140;6.290;2022-12-28T02:41:09;10.52;;;9.98;;
25231;SDS011;13176;51.140;6.290;2022-12-28T02:43:39;11.25;;;10.55;;
25231;SDS011;13176;51.140;6.290;2022-12-28T02:46:15;11.35;;;10.65;;
25231;SDS011;13176;51.140;6.290;2022-12-28T02:49:15;11.73;;;10.93;;
25231;SDS011;13176;51.140;6.290;2022-12-28T02:58:27;11.07;;;10.27;;
25231;SDS011;13176;51.140;6.290;2022-12-28T03:01:23;10.15;;;9.32;;
25231;SDS011;13176;51.140;6.290;2022-12-28T03:06:59;10.63;;;9.75;;
25231;SDS011;13176;51.140;6.290;2022-12-28T03:12:45;10.25;;;9.65;;
25231;SDS011;13176;51.140;6.290;2022-12-28T03:15:20;11.75;;;10.98;;
25231;SDS011;13176;51.140;6.290;2022-12-28T03:17:58;11.05;;;10.25;;
25231;SDS011;13176;51.140;6.290;2022-12-28T03:20:43;13.63;;;12.77;;
25231;SDS011;13176;51.140;6.290;2022-12-28T03:23:31;11.57;;;10.98;;
25231;SDS011;13176;51.140;6.290;2022-12-28T03:26:18;11.43;;;10.73;;
25231;SDS011;13176;51.140;6.290;2022-12-28T03:29:07;12.50;;;11.70;;
25231;SDS011;13176;51.140;6.290;2022-12-28T03:31:55;12.23;;;11.57;;
25231;SDS011;13176;51.140;6.290;2022-12-28T03:34:22;12.82;;;12.07;;
25231;SDS011;13176;51.140;6.290;2022-12-28T03:37:00;13.15;;;12.25;;
25231;SDS011;13176;51.140;6.290;2022-12-28T03:39:37;12.57;;;11.73;;
25231;SDS011;13176;51.140;6.290;2022-12-28T03:42:10;11.95;;;11.00;;
25231;SDS011;13176;51.140;6.290;2022-12-28T03:45:09;13.05;;;12.15;;
25231;SDS011;13176;51.140;6.290;2022-12-28T03:48:02;13.85;;;13.02;;
25231;SDS011;13176;51.140;6.290;2022-12-28T03:50:29;12.55;;;11.90;;
25231;SDS011;13176;51.140;6.290;2022-12-28T03:52:59;12.80;;;12.00;;
25231;SDS011;13176;51.140;6.290;2022-12-28T03:55:26;12.00;;;11.25;;
25231;SDS011;13176;51.140;6.290;2022-12-28T03:57:53;12.93;;;11.93;;
25231;SDS011;13176;51.140;6.290;2022-12-28T04:00:19;13.18;;;12.40;;
25231;SDS011;13176;51.140;6.290;2022-12-28T04:02:45;12.38;;;11.75;;
25231;SDS011;13176;51.140;6.290;2022-12-28T04:05:12;14.27;;;13.35;;
25231;SDS011;13176;51.140;6.290;2022-12-28T04:07:38;14.55;;;13.52;;
25231;SDS011;13176;51.140;6.290;2022-12-28T04:10:05;14.93;;;14.02;;
25231;SDS011;13176;51.140;6.290;2022-12-28T04:12:31;19.67;;;18.50;;
25231;SDS011;13176;51.140;6.290;2022-12-28T04:14:58;15.75;;;14.90;;
25231;SDS011;13176;51.140;6.290;2022-12-28T04:17:24;13.75;;;12.60;;
25231;SDS011;13176;51.140;6.290;2022-12-28T04:19:50;13.25;;;12.50;;
25231;SDS011;13176;51.140;6.290;2022-12-28T04:22:17;15.68;;;14.68;;
25231;SDS011;13176;51.140;6.290;2022-12-28T04:24:43;13.77;;;12.75;;
25231;SDS011;13176;51.140;6.290;2022-12-28T04:27:09;13.45;;;12.60;;
25231;SDS011;13176;51.140;6.290;2022-12-28T04:29:36;13.00;;;12.20;;
25231;SDS011;13176;51.140;6.290;2022-12-28T04:32:02;12.35;;;11.55;;
25231;SDS011;13176;51.140;6.290;2022-12-28T04:34:29;14.27;;;13.38;;
25231;SDS011;13176;51.140;6.290;2022-12-28T04:36:55;14.95;;;13.88;;
25231;SDS011;13176;51.140;6.290;2022-12-28T04:39:22;13.32;;;12.63;;
25231;SDS011;13176;51.140;6.290;2022-12-28T04:41:48;12.82;;;12.18;;
25231;SDS011;13176;51.140;6.290;2022-12-28T04:44:15;13.15;;;12.45;;
25231;SDS011;13176;51.140;6.290;2022-12-28T04:46:41;13.32;;;12.50;;
25231;SDS011;13176;51.140;6.290;2022-12-28T04:49:07;13.27;;;12.48;;
25231;SDS011;13176;51.140;6.290;2022-12-28T04:51:34;13.07;;;12.10;;
25231;SDS011;13176;51.140;6.290;2022-12-28T04:54:00;13.65;;;12.60;;
25231;SDS011;13176;51.140;6.290;2022-12-28T04:56:27;12.45;;;11.63;;
25231;SDS011;13176;51.140;6.290;2022-12-28T04:58:54;12.40;;;11.57;;
25231;SDS011;13176;51.140;6.290;2022-12-28T05:01:22;12.10;;;11.30;;
25231;SDS011;13176;51.140;6.290;2022-12-28T05:03:49;12.30;;;11.25;;
25231;SDS011;13176;51.140;6.290;2022-12-28T05:06:22;11.60;;;10.90;;
25231;SDS011;13176;51.140;6.290;2022-12-28T05:08:50;11.48;;;10.85;;
25231;SDS011;13176;51.140;6.290;2022-12-28T05:11:17;11.85;;;10.95;;
25231;SDS011;13176;51.140;6.290;2022-12-28T05:13:46;11.82;;;10.75;;
25231;SDS011;13176;51.140;6.290;2022-12-28T05:16:14;12.20;;;11.38;;
25231;SDS011;13176;51.140;6.290;2022-12-28T05:18:42;13.40;;;12.60;;
25231;SDS011;13176;51.140;6.290;2022-12-28T05:21:16;11.40;;;10.63;;
25231;SDS011;13176;51.140;6.290;2022-12-28T05:23:45;12.10;;;11.30;;
25231;SDS011;13176;51.140;6.290;2022-12-28T05:26:13;12.25;;;11.50;;
25231;SDS011;13176;51.140;6.290;2022-12-28T05:28:41;57.55;;;24.13;;
25231;SDS011;13176;51.140;6.290;2022-12-28T05:31:12;14.35;;;13.60;;
25231;SDS011;13176;51.140;6.290;2022-12-28T05:33:40;12.90;;;12.00;;
25231;SDS011;13176;51.140;6.290;2022-12-28T05:36:11;13.57;;;12.60;;
25231;SDS011;13176;51.140;6.290;2022-12-28T05:38:40;13.05;;;12.13;;
25231;SDS011;13176;51.140;6.290;2022-12-28T05:41:11;13.13;;;12.32;;
25231;SDS011;13176;51.140;6.290;2022-12-28T05:43:40;14.25;;;13.30;;
25231;SDS011;13176;51.140;6.290;2022-12-28T05:46:08;13.77;;;12.98;;
25231;SDS011;13176;51.140;6.290;2022-12-28T05:48:37;15.68;;;14.70;;
25231;SDS011;13176;51.140;6.290;2022-12-28T05:51:06;15.57;;;14.57;;
25231;SDS011;13176;51.140;6.290;2022-12-28T05:53:37;13.38;;;12.48;;
25231;SDS011;13176;51.140;6.290;2022-12-28T05:56:11;17.90;;;16.65;;
25231;SDS011;13176;51.140;6.290;2022-12-28T05:58:43;19.00;;;17.73;;
25231;SDS011;13176;51.140;6.290;2022-12-28T06:01:12;12.82;;;12.13;;
25231;SDS011;13176;51.140;6.290;2022-12-28T06:03:40;14.60;;;13.75;;
25231;SDS011;13176;51.140;6.290;2022-12-28T06:08:36;15.23;;;14.23;;
25231;SDS011;13176;51.140;6.290;2022-12-28T06:11:03;12.52;;;11.73;;
25231;SDS011;13176;51.140;6.290;2022-12-28T06:13:31;13.82;;;13.07;;
25231;SDS011;13176;51.140;6.290;2022-12-28T06:16:03;14.20;;;13.35;;
25231;SDS011;13176;51.140;6.290;2022-12-28T06:18:31;14.88;;;13.88;;
25231;SDS011;13176;51.140;6.290;2022-12-28T06:21:02;13.85;;;12.82;;
25231;SDS011;13176;51.140;6.290;2022-12-28T06:23:29;18.05;;;16.92;;
25231;SDS011;13176;51.140;6.290;2022-12-28T06:25:59;19.40;;;18.35;;
25231;SDS011;13176;51.140;6.290;2022-12-28T06:28:27;11.95;;;11.20;;
25231;SDS011;13176;51.140;6.290;2022-12-28T06:31:07;12.00;;;11.20;;
25231;SDS011;13176;51.140;6.290;2022-12-28T06:33:39;12.82;;;12.13;;
25231;SDS011;13176;51.140;6.290;2022-12-28T06:36:13;12.10;;;11.30;;
25231;SDS011;13176;51.140;6.290;2022-12-28T06:38:47;12.48;;;11.57;;
25231;SDS011;13176;51.140;6.290;2022-12-28T06:41:15;11.27;;;10.48;;
25231;SDS011;13176;51.140;6.290;2022-12-28T06:43:43;12.65;;;11.88;;
25231;SDS011;13176;51.140;6.290;2022-12-28T06:46:11;10.95;;;10.35;;
25231;SDS011;13176;51.140;6.290;2022-12-28T06:48:38;12.07;;;11.27;;
25231;SDS011;13176;51.140;6.290;2022-12-28T06:53:33;12.50;;;11.75;;
25231;SDS011;13176;51.140;6.290;2022-12-28T06:56:02;13.68;;;12.95;;
25231;SDS011;13176;51.140;6.290;2022-12-28T06:58:31;16.25;;;15.25;;
25231;SDS011;13176;51.140;6.290;2022-12-28T07:01:04;12.60;;;11.80;;
25231;SDS011;13176;51.140;6.290;2022-12-28T07:03:32;13.40;;;12.65;;
25231;SDS011;13176;51.140;6.290;2022-12-28T07:06:00;13.38;;;12.57;;
25231;SDS011;13176;51.140;6.290;2022-12-28T07:08:27;13.52;;;12.57;;
25231;SDS011;13176;51.140;6.290;2022-12-28T07:10:54;14.65;;;13.88;;
25231;SDS011;13176;51.140;6.290;2022-12-28T07:13:20;13.30;;;12.40;;
25231;SDS011;13176;51.140;6.290;2022-12-28T07:15:53;13.15;;;12.35;;
25231;SDS011;13176;51.140;6.290;2022-12-28T07:18:19;12.38;;;11.68;;
25231;SDS011;13176;51.140;6.290;2022-12-28T07:20:46;14.50;;;13.68;;
25231;SDS011;13176;51.140;6.290;2022-12-28T07:23:12;14.00;;;13.20;;
25231;SDS011;13176;51.140;6.290;2022-12-28T07:25:38;12.10;;;11.43;;
25231;SDS011;13176;51.140;6.290;2022-12-28T07:28:05;11.23;;;10.63;;
25231;SDS011;13176;51.140;6.290;2022-12-28T07:30:31;11.35;;;10.65;;
25231;SDS011;13176;51.140;6.290;2022-12-28T07:32:57;10.38;;;9.77;;
25231;SDS011;13176;51.140;6.290;2022-12-28T07:35:24;11.00;;;10.40;;
25231;SDS011;13176;51.140;6.290;2022-12-28T07:37:50;11.40;;;10.77;;
25231;SDS011;13176;51.140;6.290;2022-12-28T07:40:19;13.63;;;12.50;;
25231;SDS011;13176;51.140;6.290;2022-12-28T07:42:45;10.88;;;10.35;;
25231;SDS011;13176;51.140;6.290;2022-12-28T07:45:12;13.75;;;12.88;;
25231;SDS011;13176;51.140;6.290;2022-12-28T07:47:39;13.77;;;12.82;;
25231;SDS011;13176;51.140;6.290;2022-12-28T07:50:06;25.67;;;24.13;;
25231;SDS011;13176;51.140;6.290;2022-12-28T07:52:34;17.13;;;16.13;;
25231;SDS011;13176;51.140;6.290;2022-12-28T07:55:08;23.55;;;22.30;;
25231;SDS011;13176;51.140;6.290;2022-12-28T07:57:35;16.73;;;15.73;;
25231;SDS011;13176;51.140;6.290;2022-12-28T08:00:09;18.73;;;17.58;;
25231;SDS011;13176;51.140;6.290;2022-12-28T08:02:58;18.08;;;16.98;;
25231;SDS011;13176;51.140;6.290;2022-12-28T08:05:30;15.63;;;14.73;;
25231;SDS011;13176;51.140;6.290;2022-12-28T08:08:20;18.08;;;16.98;;
25231;SDS011;13176;51.140;6.290;2022-12-28T08:11:33;13.00;;;12.25;;
25231;SDS011;13176;51.140;6.290;2022-12-28T08:14:02;15.75;;;14.90;;
25231;SDS011;13176;51.140;6.290;2022-12-28T08:16:33;15.00;;;14.10;;
25231;SDS011;13176;51.140;6.290;2022-12-28T08:19:25;16.33;;;15.02;;
25231;SDS011;13176;51.140;6.290;2022-12-28T08:22:03;13.68;;;12.88;;
25231;SDS011;13176;51.140;6.290;2022-12-28T08:24:34;13.68;;;12.88;;
25231;SDS011;13176;51.140;6.290;2022-12-28T08:27:18;12.10;;;11.30;;
25231;SDS011;13176;51.140;6.290;2022-12-28T08:29:47;14.63;;;13.60;;
25231;SDS011;13176;51.140;6.290;2022-12-28T08:35:31;11.80;;;11.05;;
25231;SDS011;13176;51.140;6.290;2022-12-28T08:38:23;9.70;;;9.30;;
25231;SDS011;13176;51.140;6.290;2022-12-28T08:40:57;11.18;;;10.50;;
25231;SDS011;13176;51.140;6.290;2022-12-28T08:43:50;11.20;;;10.38;;
25231;SDS011;13176;51.140;6.290;2022-12-28T08:46:33;10.48;;;9.88;;
25231;SDS011;13176;51.140;6.290;2022-12-28T08:49:09;11.68;;;10.75;;
25231;SDS011;13176;51.140;6.290;2022-12-28T08:51:40;10.88;;;10.35;;
25231;SDS011;13176;51.140;6.290;2022-12-28T08:54:07;10.85;;;10.30;;
25231;SDS011;13176;51.140;6.290;2022-12-28T08:56:36;10.15;;;9.50;;
25231;SDS011;13176;51.140;6.290;2022-12-28T08:59:04;11.43;;;10.63;;
25231;SDS011;13176;51.140;6.290;2022-12-28T09:01:34;10.93;;;10.35;;
25231;SDS011;13176;51.140;6.290;2022-12-28T09:04:16;12.57;;;11.88;;
25231;SDS011;13176;51.140;6.290;2022-12-28T09:06:45;11.27;;;10.48;;
25231;SDS011;13176;51.140;6.290;2022-12-28T09:09:13;11.65;;;10.95;;
25231;SDS011;13176;51.140;6.290;2022-12-28T09:11:41;10.52;;;10.02;;
25231;SDS011;13176;51.140;6.290;2022-12-28T09:14:09;12.15;;;11.55;;
25231;SDS011;13176;51.140;6.290;2022-12-28T09:16:45;12.20;;;11.60;;
25231;SDS011;13176;51.140;6.290;2022-12-28T09:19:12;11.25;;;10.65;;
25231;SDS011;13176;51.140;6.290;2022-12-28T09:21:40;12.23;;;11.63;;
25231;SDS011;13176;51.140;6.290;2022-12-28T09:24:07;12.75;;;12.02;;
25231;SDS011;13176;51.140;6.290;2022-12-28T09:26:35;12.43;;;11.68;;
25231;SDS011;13176;51.140;6.290;2022-12-28T09:29:04;12.70;;;12.10;;
25231;SDS011;13176;51.140;6.290;2022-12-28T09:31:33;15.20;;;14.48;;
25231;SDS011;13176;51.140;6.290;2022-12-28T09:34:05;13.77;;;13.18;;
25231;SDS011;13176;51.140;6.290;2022-12-28T09:36:54;14.98;;;13.88;;
25231;SDS011;13176;51.140;6.290;2022-12-28T09:39:22;15.15;;;14.02;;
25231;SDS011;13176;51.140;6.290;2022-12-28T09:41:54;16.02;;;15.20;;
25231;SDS011;13176;51.140;6.290;2022-12-28T09:47:10;14.13;;;13.40;;
25231;SDS011;13176;51.140;6.290;2022-12-28T09:55:22;15.10;;;14.20;;
25231;SDS011;13176;51.140;6.290;2022-12-28T09:57:54;15.13;;;14.40;;
25231;SDS011;13176;51.140;6.290;2022-12-28T10:00:44;13.95;;;13.25;;
25231;SDS011;13176;51.140;6.290;2022-12-28T10:06:24;15.20;;;14.40;;
25231;SDS011;13176;51.140;6.290;2022-12-28T10:08:59;17.17;;;16.17;;
25231;SDS011;13176;51.140;6.290;2022-12-28T10:11:31;15.77;;;14.98;;
25231;SDS011;13176;51.140;6.290;2022-12-28T10:14:10;15.23;;;14.20;;
25231;SDS011;13176;51.140;6.290;2022-12-28T10:16:45;13.77;;;13.07;;
25231;SDS011;13176;51.140;6.290;2022-12-28T10:19:18;14.55;;;13.75;;
25231;SDS011;13176;51.140;6.290;2022-12-28T10:24:21;14.38;;;13.57;;
25231;SDS011;13176;51.140;6.290;2022-12-28T10:26:58;13.63;;;12.90;;
25231;SDS011;13176;51.140;6.290;2022-12-28T10:29:26;16.05;;;15.18;;
25231;SDS011;13176;51.140;6.290;2022-12-28T10:34:35;15.07;;;14.27;;
25231;SDS011;13176;51.140;6.290;2022-12-28T10:37:03;14.75;;;13.82;;
25231;SDS011;13176;51.140;6.290;2022-12-28T10:39:39;15.20;;;14.13;;
25231;SDS011;13176;51.140;6.290;2022-12-28T10:42:19;14.45;;;13.68;;
25231;SDS011;13176;51.140;6.290;2022-12-28T10:45:14;14.02;;;13.25;;
25231;SDS011;13176;51.140;6.290;2022-12-28T10:47:45;14.30;;;13.43;;
25231;SDS011;13176;51.140;6.290;2022-12-28T10:53:14;14.18;;;13.30;;
25231;SDS011;13176;51.140;6.290;2022-12-28T10:58:43;14.57;;;13.85;;
25231;SDS011;13176;51.140;6.290;2022-12-28T11:03:40;14.25;;;13.38;;
25231;SDS011;13176;51.140;6.290;2022-12-28T11:07:20;15.30;;;14.30;;
25231;SDS011;13176;51.140;6.290;2022-12-28T11:09:40;14.18;;;13.23;;
25231;SDS011;13176;51.140;6.290;2022-12-28T11:12:20;14.90;;;14.13;;
25231;SDS011;13176;51.140;6.290;2022-12-28T11:14:49;16.10;;;15.15;;
25231;SDS011;13176;51.140;6.290;2022-12-28T11:19:47;16.20;;;15.35;;
25231;SDS011;13176;51.140;6.290;2022-12-28T11:22:23;17.48;;;16.30;;
25231;SDS011;13176;51.140;6.290;2022-12-28T11:24:53;17.92;;;16.73;;
25231;SDS011;13176;51.140;6.290;2022-12-28T11:27:21;18.92;;;17.63;;
25231;SDS011;13176;51.140;6.290;2022-12-28T11:29:49;18.08;;;16.98;;
25231;SDS011;13176;51.140;6.290;2022-12-28T11:34:50;16.23;;;15.32;;
25231;SDS011;13176;51.140;6.290;2022-12-28T11:37:19;16.15;;;15.05;;
25231;SDS011;13176;51.140;6.290;2022-12-28T11:39:46;14.73;;;13.77;;
25231;SDS011;13176;51.140;6.290;2022-12-28T11:45:18;11.77;;;11.10;;
25231;SDS011;13176;51.140;6.290;2022-12-28T11:51:03;12.93;;;12.18;;
25231;SDS011;13176;51.140;6.290;2022-12-28T11:56:07;13.60;;;12.75;;
25231;SDS011;13176;51.140;6.290;2022-12-28T12:01:11;13.73;;;12.95;;
25231;SDS011;13176;51.140;6.290;2022-12-28T12:11:52;11.50;;;10.80;;
25231;SDS011;13176;51.140;6.290;2022-12-28T12:14:30;12.20;;;11.60;;
25231;SDS011;13176;51.140;6.290;2022-12-28T12:17:12;11.43;;;10.82;;
25231;SDS011;13176;51.140;6.290;2022-12-28T12:19:41;12.02;;;11.23;;
25231;SDS011;13176;51.140;6.290;2022-12-28T12:22:24;12.63;;;11.80;;
25231;SDS011;13176;51.140;6.290;2022-12-28T12:25:10;11.32;;;10.63;;
25231;SDS011;13176;51.140;6.290;2022-12-28T12:27:41;11.35;;;10.45;;
25231;SDS011;13176;51.140;6.290;2022-12-28T12:30:14;11.82;;;11.13;;
25231;SDS011;13176;51.140;6.290;2022-12-28T12:35:15;11.57;;;10.88;;
25231;SDS011;13176;51.140;6.290;2022-12-28T12:37:45;12.27;;;11.57;;
25231;SDS011;13176;51.140;6.290;2022-12-28T12:49:17;10.45;;;9.95;;
25231;SDS011;13176;51.140;6.290;2022-12-28T12:57:52;10.30;;;9.57;;
25231;SDS011;13176;51.140;6.290;2022-12-28T13:00:27;10.68;;;10.07;;
25231;SDS011;13176;51.140;6.290;2022-12-28T13:03:07;11.20;;;10.50;;
25231;SDS011;13176;51.140;6.290;2022-12-28T13:05:56;10.05;;;9.45;;
25231;SDS011;13176;51.140;6.290;2022-12-28T13:08:25;10.30;;;9.77;;
25231;SDS011;13176;51.140;6.290;2022-12-28T13:10:56;9.77;;;9.25;;
25231;SDS011;13176;51.140;6.290;2022-12-28T13:13:27;11.35;;;10.32;;
25231;SDS011;13176;51.140;6.290;2022-12-28T13:16:00;11.00;;;10.40;;
25231;SDS011;13176;51.140;6.290;2022-12-28T13:18:29;10.85;;;10.15;;
25231;SDS011;13176;51.140;6.290;2022-12-28T13:21:15;24.80;;;22.38;;
25231;SDS011;13176;51.140;6.290;2022-12-28T13:23:45;10.65;;;9.90;;
25231;SDS011;13176;51.140;6.290;2022-12-28T13:26:13;11.75;;;10.95;;
25231;SDS011;13176;51.140;6.290;2022-12-28T13:28:45;11.18;;;10.57;;
25231;SDS011;13176;51.140;6.290;2022-12-28T13:31:20;10.75;;;9.98;;
25231;SDS011;13176;51.140;6.290;2022-12-28T13:33:55;10.30;;;9.77;;
25231;SDS011;13176;51.140;6.290;2022-12-28T13:36:24;10.88;;;10.23;;
25231;SDS011;13176;51.140;6.290;2022-12-28T13:39:04;11.38;;;10.48;;
25231;SDS011;13176;51.140;6.290;2022-12-28T13:41:48;10.77;;;10.18;;
25231;SDS011;13176;51.140;6.290;2022-12-28T13:46:51;9.98;;;9.43;;
25231;SDS011;13176;51.140;6.290;2022-12-28T13:49:30;10.10;;;9.35;;
25231;SDS011;13176;51.140;6.290;2022-12-28T13:52:04;11.35;;;10.55;;
25231;SDS011;13176;51.140;6.290;2022-12-28T13:54:32;10.70;;;10.00;;
25231;SDS011;13176;51.140;6.290;2022-12-28T13:56:59;11.40;;;10.50;;
25231;SDS011;13176;51.140;6.290;2022-12-28T13:59:45;10.13;;;9.48;;
25231;SDS011;13176;51.140;6.290;2022-12-28T14:02:14;9.95;;;9.45;;
25231;SDS011;13176;51.140;6.290;2022-12-28T14:04:43;11.00;;;10.30;;
25231;SDS011;13176;51.140;6.290;2022-12-28T14:07:19;11.15;;;10.40;;
25231;SDS011;13176;51.140;6.290;2022-12-28T14:09:49;10.77;;;10.10;;
25231;SDS011;13176;51.140;6.290;2022-12-28T14:12:16;11.27;;;10.45;;
25231;SDS011;13176;51.140;6.290;2022-12-28T14:14:44;11.25;;;10.52;;
25231;SDS011;13176;51.140;6.290;2022-12-28T14:17:10;11.55;;;10.95;;
25231;SDS011;13176;51.140;6.290;2022-12-28T14:19:37;12.38;;;11.45;;
25231;SDS011;13176;51.140;6.290;2022-12-28T14:22:24;11.88;;;11.18;;
25231;SDS011;13176;51.140;6.290;2022-12-28T14:27:41;11.57;;;10.63;;
25231;SDS011;13176;51.140;6.290;2022-12-28T14:30:21;11.38;;;10.68;;
25231;SDS011;13176;51.140;6.290;2022-12-28T14:32:53;12.25;;;11.50;;
25231;SDS011;13176;51.140;6.290;2022-12-28T14:35:25;12.35;;;11.50;;
25231;SDS011;13176;51.140;6.290;2022-12-28T14:37:57;11.10;;;10.45;;
25231;SDS011;13176;51.140;6.290;2022-12-28T14:40:30;11.23;;;10.63;;
25231;SDS011;13176;51.140;6.290;2022-12-28T14:43:06;11.65;;;10.85;;
25231;SDS011;13176;51.140;6.290;2022-12-28T14:45:43;11.82;;;11.00;;
25231;SDS011;13176;51.140;6.290;2022-12-28T14:48:32;12.05;;;11.15;;
25231;SDS011;13176;51.140;6.290;2022-12-28T14:51:02;12.18;;;11.38;;
25231;SDS011;13176;51.140;6.290;2022-12-28T14:56:48;10.25;;;9.48;;
25231;SDS011;13176;51.140;6.290;2022-12-28T14:59:20;10.55;;;9.93;;
25231;SDS011;13176;51.140;6.290;2022-12-28T15:01:50;10.82;;;10.23;;
25231;SDS011;13176;51.140;6.290;2022-12-28T15:04:34;11.13;;;10.52;;
25231;SDS011;13176;51.140;6.290;2022-12-28T15:07:02;11.00;;;10.40;;
25231;SDS011;13176;51.140;6.290;2022-12-28T15:09:30;11.48;;;10.68;;
25231;SDS011;13176;51.140;6.290;2022-12-28T15:12:13;11.10;;;10.43;;
25231;SDS011;13176;51.140;6.290;2022-12-28T15:14:43;9.25;;;8.65;;
25231;SDS011;13176;51.140;6.290;2022-12-28T15:17:09;10.23;;;9.55;;
25231;SDS011;13176;51.140;6.290;2022-12-28T15:19:36;9.23;;;8.73;;
25231;SDS011;13176;51.140;6.290;2022-12-28T15:22:02;10.48;;;9.73;;
25231;SDS011;13176;51.140;6.290;2022-12-28T15:24:29;9.18;;;8.65;;
25231;SDS011;13176;51.140;6.290;2022-12-28T15:26:59;9.00;;;8.40;;
25231;SDS011;13176;51.140;6.290;2022-12-28T15:29:27;8.93;;;8.32;;
25231;SDS011;13176;51.140;6.290;2022-12-28T15:32:13;8.25;;;7.82;;
25231;SDS011;13176;51.140;6.290;2022-12-28T15:34:40;7.75;;;7.05;;
25231;SDS011;13176;51.140;6.290;2022-12-28T15:37:06;7.63;;;7.22;;
25231;SDS011;13176;51.140;6.290;2022-12-28T15:39:33;8.05;;;7.47;;
25231;SDS011;13176;51.140;6.290;2022-12-28T15:41:59;7.78;;;7.28;;
25231;SDS011;13176;51.140;6.290;2022-12-28T15:44:25;7.45;;;7.03;;
25231;SDS011;13176;51.140;6.290;2022-12-28T15:46:52;8.52;;;8.02;;
25231;SDS011;13176;51.140;6.290;2022-12-28T15:49:18;7.30;;;6.90;;
25231;SDS011;13176;51.140;6.290;2022-12-28T15:51:45;7.75;;;7.35;;
25231;SDS011;13176;51.140;6.290;2022-12-28T15:54:11;7.43;;;7.03;;
25231;SDS011;13176;51.140;6.290;2022-12-28T15:56:39;7.75;;;7.18;;
25231;SDS011;13176;51.140;6.290;2022-12-28T15:59:09;7.75;;;7.25;;
25231;SDS011;13176;51.140;6.290;2022-12-28T16:01:38;7.20;;;6.75;;
25231;SDS011;13176;51.140;6.290;2022-12-28T16:04:07;7.40;;;6.85;;
25231;SDS011;13176;51.140;6.290;2022-12-28T16:06:33;6.93;;;6.32;;
25231;SDS011;13176;51.140;6.290;2022-12-28T16:09:09;6.70;;;6.25;;
25231;SDS011;13176;51.140;6.290;2022-12-28T16:11:36;7.05;;;6.47;;
25231;SDS011;13176;51.140;6.290;2022-12-28T16:14:03;7.53;;;7.03;;
25231;SDS011;13176;51.140;6.290;2022-12-28T16:16:33;7.60;;;7.13;;
25231;SDS011;13176;51.140;6.290;2022-12-28T16:19:01;7.50;;;7.10;;
25231;SDS011;13176;51.140;6.290;2022-12-28T16:21:28;7.70;;;7.15;;
25231;SDS011;13176;51.140;6.290;2022-12-28T16:23:55;7.75;;;7.20;;
25231;SDS011;13176;51.140;6.290;2022-12-28T16:26:24;7.57;;;7.07;;
25231;SDS011;13176;51.140;6.290;2022-12-28T16:28:50;8.05;;;7.28;;
25231;SDS011;13176;51.140;6.290;2022-12-28T16:31:19;8.10;;;7.68;;
25231;SDS011;13176;51.140;6.290;2022-12-28T16:33:54;9.30;;;8.63;;
25231;SDS011;13176;51.140;6.290;2022-12-28T16:36:31;10.02;;;9.32;;
25231;SDS011;13176;51.140;6.290;2022-12-28T16:38:58;10.88;;;10.07;;
25231;SDS011;13176;51.140;6.290;2022-12-28T16:41:24;10.85;;;9.95;;
25231;SDS011;13176;51.140;6.290;2022-12-28T16:44:02;9.48;;;8.88;;